sensor_id;sensor_type;location;lat;lon;timestamp;P1;durP1;ratioP1;P2;durP2;ratioP2
13708;SDS011;54933;51.908;7.730;2023-12-28T00:00:19;1.57;;;1.10;;
13708;SDS011;54933;51.908;7.730;2023-12-28T00:02:44;1.47;;;1.00;;
13708;SDS011;54933;51.908;7.730;2023-12-28T00:05:09;1.43;;;1.17;;
13708;SDS011;54933;51.908;7.730;2023-12-28T00:07:35;0.93;;;0.93;;
13708;SDS011;54933;51.908;7.730;2023-12-28T00:10:00;1.30;;;1.20;;
13708;SDS011;54933;51.908;7.730;2023-12-28T00:12:26;2.33;;;1.13;;
13708;SDS011;54933;51.908;7.730;2023-12-28T00:14:51;3.03;;;0.77;;
13708;SDS011;54933;51.908;7.730;2023-12-28T00:17:16;1.47;;;1.10;;
13708;SDS011;54933;51.908;7.730;2023-12-28T00:19:42;1.60;;;1.20;;
13708;SDS011;54933;51.908;7.730;2023-12-28T00:22:07;1.60;;;0.90;;
13708;SDS011;54933;51.908;7.730;2023-12-28T00:24:32;1.07;;;0.97;;
13708;SDS011;54933;51.908;7.730;2023-12-28T00:26:57;1.40;;;0.87;;
13708;SDS011;54933;51.908;7.730;2023-12-28T00:29:22;3.67;;;1.00;;
13708;SDS011;54933;51.908;7.730;2023-12-28T00:31:48;1.97;;;1.17;;
13708;SDS011;54933;51.908;7.730;2023-12-28T00:34:13;1.33;;;1.20;;
13708;SDS011;54933;51.908;7.730;2023-12-28T00:36:38;1.40;;;1.00;;
13708;SDS011;54933;51.908;7.730;2023-12-28T00:39:03;1.27;;;0.90;;
13708;SDS011;54933;51.908;7.730;2023-12-28T00:41:29;0.93;;;0.70;;
13708;SDS011;54933;51.908;7.730;2023-12-28T00:43:54;1.50;;;0.90;;
13708;SDS011;54933;51.908;7.730;2023-12-28T00:46:19;1.10;;;1.10;;
13708;SDS011;54933;51.908;7.730;2023-12-28T00:48:44;1.27;;;1.17;;
13708;SDS011;54933;51.908;7.730;2023-12-28T00:51:10;0.70;;;0.70;;
13708;SDS011;54933;51.908;7.730;2023-12-28T00:53:35;1.07;;;1.00;;
13708;SDS011;54933;51.908;7.730;2023-12-28T00:56:00;0.80;;;0.73;;
13708;SDS011;54933;51.908;7.730;2023-12-28T00:58:25;1.40;;;0.80;;
13708;SDS011;54933;51.908;7.730;2023-12-28T01:00:51;1.07;;;0.87;;
13708;SDS011;54933;51.908;7.730;2023-12-28T01:03:18;1.27;;;0.80;;
13708;SDS011;54933;51.908;7.730;2023-12-28T01:05:44;1.67;;;0.77;;
13708;SDS011;54933;51.908;7.730;2023-12-28T01:08:12;0.80;;;0.80;;
13708;SDS011;54933;51.908;7.730;2023-12-28T01:10:37;0.87;;;0.83;;
13708;SDS011;54933;51.908;7.730;2023-12-28T01:13:03;1.00;;;1.00;;
13708;SDS011;54933;51.908;7.730;2023-12-28T01:15:28;1.07;;;0.97;;
13708;SDS011;54933;51.908;7.730;2023-12-28T01:17:53;2.00;;;0.90;;
13708;SDS011;54933;51.908;7.730;2023-12-28T01:20:18;2.00;;;0.83;;
13708;SDS011;54933;51.908;7.730;2023-12-28T01:22:44;0.63;;;0.63;;
13708;SDS011;54933;51.908;7.730;2023-12-28T01:25:09;1.20;;;0.87;;
13708;SDS011;54933;51.908;7.730;2023-12-28T01:27:34;0.90;;;0.90;;
13708;SDS011;54933;51.908;7.730;2023-12-28T01:29:59;1.23;;;0.90;;
13708;SDS011;54933;51.908;7.730;2023-12-28T01:32:25;0.70;;;0.70;;
13708;SDS011;54933;51.908;7.730;2023-12-28T01:34:50;2.70;;;1.10;;
13708;SDS011;54933;51.908;7.730;2023-12-28T01:37:15;1.30;;;0.80;;
13708;SDS011;54933;51.908;7.730;2023-12-28T01:39:40;1.27;;;0.80;;
13708;SDS011;54933;51.908;7.730;2023-12-28T01:42:06;0.80;;;0.80;;
13708;SDS011;54933;51.908;7.730;2023-12-28T01:44:31;0.70;;;0.70;;
13708;SDS011;54933;51.908;7.730;2023-12-28T01:46:56;1.07;;;0.97;;
13708;SDS011;54933;51.908;7.730;2023-12-28T01:49:22;1.03;;;1.03;;
13708;SDS011;54933;51.908;7.730;2023-12-28T01:51:48;2.07;;;0.90;;
13708;SDS011;54933;51.908;7.730;2023-12-28T01:54:15;2.60;;;1.00;;
13708;SDS011;54933;51.908;7.730;2023-12-28T01:56:41;1.40;;;0.90;;
13708;SDS011;54933;51.908;7.730;2023-12-28T01:59:08;1.10;;;0.80;;
13708;SDS011;54933;51.908;7.730;2023-12-28T02:01:34;0.70;;;0.70;;
13708;SDS011;54933;51.908;7.730;2023-12-28T02:03:59;0.80;;;0.80;;
13708;SDS011;54933;51.908;7.730;2023-12-28T02:06:24;1.97;;;0.83;;
13708;SDS011;54933;51.908;7.730;2023-12-28T02:08:50;0.90;;;0.90;;
13708;SDS011;54933;51.908;7.730;2023-12-28T02:11:15;0.87;;;0.70;;
13708;SDS011;54933;51.908;7.730;2023-12-28T02:13:41;1.00;;;0.90;;
13708;SDS011;54933;51.908;7.730;2023-12-28T02:16:09;1.17;;;0.77;;
13708;SDS011;54933;51.908;7.730;2023-12-28T02:18:44;0.63;;;0.63;;
13708;SDS011;54933;51.908;7.730;2023-12-28T02:21:12;0.87;;;0.87;;
13708;SDS011;54933;51.908;7.730;2023-12-28T02:23:38;1.20;;;0.93;;
13708;SDS011;54933;51.908;7.730;2023-12-28T02:26:03;0.60;;;0.60;;
13708;SDS011;54933;51.908;7.730;2023-12-28T02:28:29;1.90;;;0.80;;
13708;SDS011;54933;51.908;7.730;2023-12-28T02:30:54;0.63;;;0.60;;
13708;SDS011;54933;51.908;7.730;2023-12-28T02:36:10;1.07;;;0.87;;
13708;SDS011;54933;51.908;7.730;2023-12-28T02:38:36;0.70;;;0.70;;
13708;SDS011;54933;51.908;7.730;2023-12-28T02:41:03;0.60;;;0.60;;
13708;SDS011;54933;51.908;7.730;2023-12-28T02:43:28;0.70;;;0.70;;
13708;SDS011;54933;51.908;7.730;2023-12-28T02:45:54;0.60;;;0.60;;
13708;SDS011;54933;51.908;7.730;2023-12-28T02:48:19;0.70;;;0.70;;
13708;SDS011;54933;51.908;7.730;2023-12-28T02:50:45;0.83;;;0.73;;
13708;SDS011;54933;51.908;7.730;2023-12-28T02:53:11;0.80;;;0.80;;
13708;SDS011;54933;51.908;7.730;2023-12-28T02:55:37;0.80;;;0.80;;
13708;SDS011;54933;51.908;7.730;2023-12-28T02:58:02;0.57;;;0.57;;
13708;SDS011;54933;51.908;7.730;2023-12-28T03:00:28;0.73;;;0.73;;
13708;SDS011;54933;51.908;7.730;2023-12-28T03:02:53;0.73;;;0.73;;
13708;SDS011;54933;51.908;7.730;2023-12-28T03:05:18;0.60;;;0.60;;
13708;SDS011;54933;51.908;7.730;2023-12-28T03:07:44;0.60;;;0.60;;
13708;SDS011;54933;51.908;7.730;2023-12-28T03:10:09;0.80;;;0.70;;
13708;SDS011;54933;51.908;7.730;2023-12-28T03:12:36;0.90;;;0.80;;
13708;SDS011;54933;51.908;7.730;2023-12-28T03:15:02;0.73;;;0.73;;
13708;SDS011;54933;51.908;7.730;2023-12-28T03:17:27;0.70;;;0.60;;
13708;SDS011;54933;51.908;7.730;2023-12-28T03:19:54;0.93;;;0.70;;
13708;SDS011;54933;51.908;7.730;2023-12-28T03:22:19;0.80;;;0.70;;
13708;SDS011;54933;51.908;7.730;2023-12-28T03:24:44;0.80;;;0.80;;
13708;SDS011;54933;51.908;7.730;2023-12-28T03:27:11;0.73;;;0.70;;
13708;SDS011;54933;51.908;7.730;2023-12-28T03:29:36;0.70;;;0.70;;
13708;SDS011;54933;51.908;7.730;2023-12-28T03:32:01;1.13;;;0.60;;
13708;SDS011;54933;51.908;7.730;2023-12-28T03:34:27;0.70;;;0.70;;
13708;SDS011;54933;51.908;7.730;2023-12-28T03:36:54;0.60;;;0.60;;
13708;SDS011;54933;51.908;7.730;2023-12-28T03:39:19;1.20;;;0.70;;
13708;SDS011;54933;51.908;7.730;2023-12-28T03:41:44;0.83;;;0.77;;
13708;SDS011;54933;51.908;7.730;2023-12-28T03:44:10;0.50;;;0.50;;
13708;SDS011;54933;51.908;7.730;2023-12-28T03:46:35;0.50;;;0.50;;
13708;SDS011;54933;51.908;7.730;2023-12-28T03:49:00;0.60;;;0.60;;
13708;SDS011;54933;51.908;7.730;2023-12-28T03:51:26;1.00;;;0.90;;
13708;SDS011;54933;51.908;7.730;2023-12-28T03:53:51;1.17;;;0.90;;
13708;SDS011;54933;51.908;7.730;2023-12-28T03:56:23;0.67;;;0.67;;
13708;SDS011;54933;51.908;7.730;2023-12-28T03:58:50;0.70;;;0.60;;
13708;SDS011;54933;51.908;7.730;2023-12-28T04:01:17;0.73;;;0.50;;
13708;SDS011;54933;51.908;7.730;2023-12-28T04:03:43;0.93;;;0.80;;
13708;SDS011;54933;51.908;7.730;2023-12-28T04:06:08;0.67;;;0.60;;
13708;SDS011;54933;51.908;7.730;2023-12-28T04:08:34;0.80;;;0.80;;
13708;SDS011;54933;51.908;7.730;2023-12-28T04:10:59;0.60;;;0.60;;
13708;SDS011;54933;51.908;7.730;2023-12-28T04:13:24;1.00;;;0.90;;
13708;SDS011;54933;51.908;7.730;2023-12-28T04:15:49;0.50;;;0.50;;
13708;SDS011;54933;51.908;7.730;2023-12-28T04:18:15;0.57;;;0.57;;
13708;SDS011;54933;51.908;7.730;2023-12-28T04:20:42;0.63;;;0.63;;
13708;SDS011;54933;51.908;7.730;2023-12-28T04:23:08;0.50;;;0.50;;
13708;SDS011;54933;51.908;7.730;2023-12-28T04:25:34;0.40;;;0.40;;
13708;SDS011;54933;51.908;7.730;2023-12-28T04:27:59;0.67;;;0.67;;
13708;SDS011;54933;51.908;7.730;2023-12-28T04:30:24;1.27;;;0.80;;
13708;SDS011;54933;51.908;7.730;2023-12-28T04:32:49;1.40;;;0.60;;
13708;SDS011;54933;51.908;7.730;2023-12-28T04:35:15;0.50;;;0.50;;
13708;SDS011;54933;51.908;7.730;2023-12-28T04:37:40;0.87;;;0.70;;
13708;SDS011;54933;51.908;7.730;2023-12-28T04:40:05;0.70;;;0.70;;
13708;SDS011;54933;51.908;7.730;2023-12-28T04:42:31;0.67;;;0.67;;
13708;SDS011;54933;51.908;7.730;2023-12-28T04:44:56;1.23;;;0.70;;
13708;SDS011;54933;51.908;7.730;2023-12-28T04:47:21;0.50;;;0.40;;
13708;SDS011;54933;51.908;7.730;2023-12-28T04:49:47;0.60;;;0.60;;
13708;SDS011;54933;51.908;7.730;2023-12-28T04:52:12;0.50;;;0.50;;
13708;SDS011;54933;51.908;7.730;2023-12-28T04:54:40;0.53;;;0.53;;
13708;SDS011;54933;51.908;7.730;2023-12-28T04:57:05;0.63;;;0.60;;
13708;SDS011;54933;51.908;7.730;2023-12-28T04:59:30;0.70;;;0.70;;
13708;SDS011;54933;51.908;7.730;2023-12-28T05:01:56;0.43;;;0.43;;
13708;SDS011;54933;51.908;7.730;2023-12-28T05:04:21;0.60;;;0.60;;
13708;SDS011;54933;51.908;7.730;2023-12-28T05:06:46;0.50;;;0.50;;
13708;SDS011;54933;51.908;7.730;2023-12-28T05:09:11;0.50;;;0.50;;
13708;SDS011;54933;51.908;7.730;2023-12-28T05:11:37;0.73;;;0.73;;
13708;SDS011;54933;51.908;7.730;2023-12-28T05:14:02;0.40;;;0.40;;
13708;SDS011;54933;51.908;7.730;2023-12-28T05:16:27;0.63;;;0.60;;
13708;SDS011;54933;51.908;7.730;2023-12-28T05:18:52;0.60;;;0.60;;
13708;SDS011;54933;51.908;7.730;2023-12-28T05:21:18;0.47;;;0.47;;
13708;SDS011;54933;51.908;7.730;2023-12-28T05:23:43;0.70;;;0.70;;
13708;SDS011;54933;51.908;7.730;2023-12-28T05:26:08;0.50;;;0.50;;
13708;SDS011;54933;51.908;7.730;2023-12-28T05:28:34;0.70;;;0.70;;
13708;SDS011;54933;51.908;7.730;2023-12-28T05:30:59;0.50;;;0.50;;
13708;SDS011;54933;51.908;7.730;2023-12-28T05:33:24;0.83;;;0.57;;
13708;SDS011;54933;51.908;7.730;2023-12-28T05:35:50;1.27;;;0.70;;
13708;SDS011;54933;51.908;7.730;2023-12-28T05:38:15;0.43;;;0.43;;
13708;SDS011;54933;51.908;7.730;2023-12-28T05:40:41;0.60;;;0.60;;
13708;SDS011;54933;51.908;7.730;2023-12-28T05:43:06;0.80;;;0.63;;
13708;SDS011;54933;51.908;7.730;2023-12-28T05:45:31;0.60;;;0.60;;
13708;SDS011;54933;51.908;7.730;2023-12-28T05:47:56;0.63;;;0.63;;
13708;SDS011;54933;51.908;7.730;2023-12-28T05:50:22;0.67;;;0.60;;
13708;SDS011;54933;51.908;7.730;2023-12-28T05:52:47;0.70;;;0.63;;
13708;SDS011;54933;51.908;7.730;2023-12-28T05:55:12;0.70;;;0.70;;
13708;SDS011;54933;51.908;7.730;2023-12-28T05:57:38;0.43;;;0.43;;
13708;SDS011;54933;51.908;7.730;2023-12-28T06:00:03;0.33;;;0.33;;
13708;SDS011;54933;51.908;7.730;2023-12-28T06:02:29;0.50;;;0.50;;
13708;SDS011;54933;51.908;7.730;2023-12-28T06:04:54;0.83;;;0.70;;
13708;SDS011;54933;51.908;7.730;2023-12-28T06:07:20;0.60;;;0.60;;
13708;SDS011;54933;51.908;7.730;2023-12-28T06:09:45;0.50;;;0.50;;
13708;SDS011;54933;51.908;7.730;2023-12-28T06:12:11;0.50;;;0.50;;
13708;SDS011;54933;51.908;7.730;2023-12-28T06:14:36;0.60;;;0.60;;
13708;SDS011;54933;51.908;7.730;2023-12-28T06:17:02;0.60;;;0.50;;
13708;SDS011;54933;51.908;7.730;2023-12-28T06:19:27;0.57;;;0.57;;
13708;SDS011;54933;51.908;7.730;2023-12-28T06:21:52;0.60;;;0.60;;
13708;SDS011;54933;51.908;7.730;2023-12-28T06:24:19;0.50;;;0.50;;
13708;SDS011;54933;51.908;7.730;2023-12-28T06:26:44;0.50;;;0.50;;
13708;SDS011;54933;51.908;7.730;2023-12-28T06:29:09;0.50;;;0.50;;
13708;SDS011;54933;51.908;7.730;2023-12-28T06:31:36;0.60;;;0.60;;
13708;SDS011;54933;51.908;7.730;2023-12-28T06:34:04;0.30;;;0.30;;
13708;SDS011;54933;51.908;7.730;2023-12-28T06:36:31;0.50;;;0.50;;
13708;SDS011;54933;51.908;7.730;2023-12-28T06:38:57;0.60;;;0.60;;
13708;SDS011;54933;51.908;7.730;2023-12-28T06:41:23;0.50;;;0.50;;
13708;SDS011;54933;51.908;7.730;2023-12-28T06:43:48;0.60;;;0.60;;
13708;SDS011;54933;51.908;7.730;2023-12-28T06:46:14;0.60;;;0.60;;
13708;SDS011;54933;51.908;7.730;2023-12-28T06:48:39;0.57;;;0.57;;
13708;SDS011;54933;51.908;7.730;2023-12-28T06:51:05;0.63;;;0.63;;
13708;SDS011;54933;51.908;7.730;2023-12-28T06:53:31;0.40;;;0.40;;
13708;SDS011;54933;51.908;7.730;2023-12-28T06:55:56;0.50;;;0.50;;
13708;SDS011;54933;51.908;7.730;2023-12-28T06:58:21;0.70;;;0.70;;
13708;SDS011;54933;51.908;7.730;2023-12-28T07:00:47;0.30;;;0.30;;
13708;SDS011;54933;51.908;7.730;2023-12-28T07:03:12;0.83;;;0.50;;
13708;SDS011;54933;51.908;7.730;2023-12-28T07:05:37;0.50;;;0.50;;
13708;SDS011;54933;51.908;7.730;2023-12-28T07:08:02;0.40;;;0.40;;
13708;SDS011;54933;51.908;7.730;2023-12-28T07:10:28;0.30;;;0.30;;
13708;SDS011;54933;51.908;7.730;2023-12-28T07:12:53;0.73;;;0.50;;
13708;SDS011;54933;51.908;7.730;2023-12-28T07:15:18;0.50;;;0.40;;
13708;SDS011;54933;51.908;7.730;2023-12-28T07:17:44;1.00;;;0.50;;
13708;SDS011;54933;51.908;7.730;2023-12-28T07:20:09;0.90;;;0.70;;
13708;SDS011;54933;51.908;7.730;2023-12-28T07:22:35;0.43;;;0.43;;
13708;SDS011;54933;51.908;7.730;2023-12-28T07:25:01;1.23;;;0.63;;
13708;SDS011;54933;51.908;7.730;2023-12-28T07:27:26;0.40;;;0.40;;
13708;SDS011;54933;51.908;7.730;2023-12-28T07:29:51;0.60;;;0.60;;
13708;SDS011;54933;51.908;7.730;2023-12-28T07:32:17;0.50;;;0.50;;
13708;SDS011;54933;51.908;7.730;2023-12-28T07:34:42;0.40;;;0.40;;
13708;SDS011;54933;51.908;7.730;2023-12-28T07:37:07;0.60;;;0.60;;
13708;SDS011;54933;51.908;7.730;2023-12-28T07:39:32;0.70;;;0.40;;
13708;SDS011;54933;51.908;7.730;2023-12-28T07:41:59;0.57;;;0.57;;
13708;SDS011;54933;51.908;7.730;2023-12-28T07:44:24;0.47;;;0.40;;
13708;SDS011;54933;51.908;7.730;2023-12-28T07:46:50;1.17;;;0.40;;
13708;SDS011;54933;51.908;7.730;2023-12-28T07:49:15;0.97;;;0.87;;
13708;SDS011;54933;51.908;7.730;2023-12-28T07:51:40;0.87;;;0.63;;
13708;SDS011;54933;51.908;7.730;2023-12-28T07:54:05;0.90;;;0.90;;
13708;SDS011;54933;51.908;7.730;2023-12-28T07:56:31;0.70;;;0.70;;
13708;SDS011;54933;51.908;7.730;2023-12-28T07:58:56;1.83;;;0.60;;
13708;SDS011;54933;51.908;7.730;2023-12-28T08:01:21;3.60;;;0.77;;
13708;SDS011;54933;51.908;7.730;2023-12-28T08:03:47;1.47;;;0.90;;
13708;SDS011;54933;51.908;7.730;2023-12-28T08:06:12;0.70;;;0.60;;
13708;SDS011;54933;51.908;7.730;2023-12-28T08:08:38;1.90;;;0.80;;
13708;SDS011;54933;51.908;7.730;2023-12-28T08:11:03;2.73;;;0.73;;
13708;SDS011;54933;51.908;7.730;2023-12-28T08:13:28;7.00;;;1.00;;
13708;SDS011;54933;51.908;7.730;2023-12-28T08:15:54;0.83;;;0.60;;
13708;SDS011;54933;51.908;7.730;2023-12-28T08:18:19;2.27;;;0.67;;
13708;SDS011;54933;51.908;7.730;2023-12-28T08:20:44;5.83;;;2.17;;
13708;SDS011;54933;51.908;7.730;2023-12-28T08:23:09;2.70;;;0.77;;
13708;SDS011;54933;51.908;7.730;2023-12-28T08:25:35;2.23;;;0.93;;
13708;SDS011;54933;51.908;7.730;2023-12-28T08:28:00;1.63;;;0.80;;
13708;SDS011;54933;51.908;7.730;2023-12-28T08:30:25;3.57;;;1.37;;
13708;SDS011;54933;51.908;7.730;2023-12-28T08:32:52;1.17;;;0.73;;
13708;SDS011;54933;51.908;7.730;2023-12-28T08:35:17;3.20;;;0.67;;
13708;SDS011;54933;51.908;7.730;2023-12-28T08:37:43;1.33;;;0.80;;
13708;SDS011;54933;51.908;7.730;2023-12-28T08:40:08;2.00;;;0.73;;
13708;SDS011;54933;51.908;7.730;2023-12-28T08:42:34;38.33;;;2.87;;
13708;SDS011;54933;51.908;7.730;2023-12-28T08:44:59;12.33;;;2.20;;
13708;SDS011;54933;51.908;7.730;2023-12-28T08:47:24;9.27;;;1.57;;
13708;SDS011;54933;51.908;7.730;2023-12-28T08:49:50;12.33;;;1.67;;
13708;SDS011;54933;51.908;7.730;2023-12-28T08:52:15;20.83;;;3.10;;
13708;SDS011;54933;51.908;7.730;2023-12-28T08:54:40;7.70;;;1.13;;
13708;SDS011;54933;51.908;7.730;2023-12-28T08:57:06;3.93;;;1.50;;
13708;SDS011;54933;51.908;7.730;2023-12-28T08:59:31;9.87;;;1.73;;
13708;SDS011;54933;51.908;7.730;2023-12-28T09:01:56;47.50;;;4.17;;
13708;SDS011;54933;51.908;7.730;2023-12-28T09:04:22;211.67;;;16.43;;
13708;SDS011;54933;51.908;7.730;2023-12-28T09:06:47;89.47;;;9.50;;
13708;SDS011;54933;51.908;7.730;2023-12-28T09:09:12;52.07;;;5.40;;
13708;SDS011;54933;51.908;7.730;2023-12-28T09:11:37;37.23;;;6.30;;
13708;SDS011;54933;51.908;7.730;2023-12-28T09:14:03;38.70;;;4.00;;
13708;SDS011;54933;51.908;7.730;2023-12-28T09:16:28;24.40;;;2.97;;
13708;SDS011;54933;51.908;7.730;2023-12-28T09:18:53;25.00;;;4.07;;
13708;SDS011;54933;51.908;7.730;2023-12-28T09:21:19;27.57;;;2.83;;
13708;SDS011;54933;51.908;7.730;2023-12-28T09:23:44;16.03;;;2.60;;
13708;SDS011;54933;51.908;7.730;2023-12-28T09:26:09;21.20;;;3.90;;
13708;SDS011;54933;51.908;7.730;2023-12-28T09:28:34;20.30;;;2.47;;
13708;SDS011;54933;51.908;7.730;2023-12-28T09:31:03;17.07;;;2.53;;
13708;SDS011;54933;51.908;7.730;2023-12-28T09:33:29;13.47;;;2.47;;
13708;SDS011;54933;51.908;7.730;2023-12-28T09:35:54;15.73;;;2.43;;
13708;SDS011;54933;51.908;7.730;2023-12-28T09:38:20;18.83;;;2.67;;
13708;SDS011;54933;51.908;7.730;2023-12-28T09:40:46;12.60;;;2.40;;
13708;SDS011;54933;51.908;7.730;2023-12-28T09:43:21;15.00;;;2.10;;
13708;SDS011;54933;51.908;7.730;2023-12-28T09:45:49;12.23;;;2.37;;
13708;SDS011;54933;51.908;7.730;2023-12-28T09:48:17;8.67;;;1.70;;
13708;SDS011;54933;51.908;7.730;2023-12-28T09:50:45;11.47;;;2.20;;
13708;SDS011;54933;51.908;7.730;2023-12-28T09:53:14;11.40;;;1.60;;
13708;SDS011;54933;51.908;7.730;2023-12-28T09:55:39;10.13;;;1.93;;
13708;SDS011;54933;51.908;7.730;2023-12-28T09:58:04;12.77;;;2.00;;
13708;SDS011;54933;51.908;7.730;2023-12-28T10:00:31;11.83;;;1.50;;
13708;SDS011;54933;51.908;7.730;2023-12-28T10:02:57;11.20;;;2.47;;
13708;SDS011;54933;51.908;7.730;2023-12-28T10:05:22;8.07;;;2.03;;
13708;SDS011;54933;51.908;7.730;2023-12-28T10:07:47;10.57;;;1.70;;
13708;SDS011;54933;51.908;7.730;2023-12-28T10:10:13;9.37;;;1.23;;
13708;SDS011;54933;51.908;7.730;2023-12-28T10:12:39;11.80;;;1.63;;
13708;SDS011;54933;51.908;7.730;2023-12-28T10:15:04;9.27;;;1.63;;
13708;SDS011;54933;51.908;7.730;2023-12-28T10:17:33;8.67;;;1.90;;
13708;SDS011;54933;51.908;7.730;2023-12-28T10:20:00;10.43;;;2.00;;
13708;SDS011;54933;51.908;7.730;2023-12-28T10:22:28;10.37;;;1.53;;
13708;SDS011;54933;51.908;7.730;2023-12-28T10:24:54;9.70;;;1.20;;
13708;SDS011;54933;51.908;7.730;2023-12-28T10:27:19;5.67;;;1.43;;
13708;SDS011;54933;51.908;7.730;2023-12-28T10:29:45;6.60;;;1.47;;
13708;SDS011;54933;51.908;7.730;2023-12-28T10:32:10;6.97;;;1.57;;
13708;SDS011;54933;51.908;7.730;2023-12-28T10:34:36;7.87;;;1.53;;
13708;SDS011;54933;51.908;7.730;2023-12-28T10:37:01;2.57;;;1.30;;
13708;SDS011;54933;51.908;7.730;2023-12-28T10:39:27;6.93;;;1.23;;
13708;SDS011;54933;51.908;7.730;2023-12-28T10:41:58;8.80;;;1.33;;
13708;SDS011;54933;51.908;7.730;2023-12-28T10:44:27;5.33;;;1.00;;
13708;SDS011;54933;51.908;7.730;2023-12-28T10:46:58;6.47;;;1.23;;
13708;SDS011;54933;51.908;7.730;2023-12-28T10:49:27;6.20;;;1.00;;
13708;SDS011;54933;51.908;7.730;2023-12-28T10:51:55;6.30;;;1.30;;
13708;SDS011;54933;51.908;7.730;2023-12-28T10:54:27;3.97;;;1.10;;
13708;SDS011;54933;51.908;7.730;2023-12-28T10:57:13;3.13;;;1.10;;
13708;SDS011;54933;51.908;7.730;2023-12-28T11:00:10;2.80;;;1.00;;
13708;SDS011;54933;51.908;7.730;2023-12-28T11:02:44;3.13;;;0.80;;
13708;SDS011;54933;51.908;7.730;2023-12-28T11:05:11;3.03;;;0.70;;
13708;SDS011;54933;51.908;7.730;2023-12-28T11:07:37;2.20;;;0.97;;
13708;SDS011;54933;51.908;7.730;2023-12-28T11:10:06;0.70;;;0.70;;
13708;SDS011;54933;51.908;7.730;2023-12-28T11:12:32;0.80;;;0.80;;
13708;SDS011;54933;51.908;7.730;2023-12-28T11:14:58;3.93;;;1.00;;
13708;SDS011;54933;51.908;7.730;2023-12-28T11:17:24;1.60;;;0.90;;
13708;SDS011;54933;51.908;7.730;2023-12-28T11:19:50;0.70;;;0.70;;
13708;SDS011;54933;51.908;7.730;2023-12-28T11:22:18;3.77;;;1.10;;
13708;SDS011;54933;51.908;7.730;2023-12-28T11:24:45;1.17;;;0.70;;
13708;SDS011;54933;51.908;7.730;2023-12-28T11:27:10;1.10;;;0.57;;
13708;SDS011;54933;51.908;7.730;2023-12-28T11:29:36;1.03;;;0.87;;
13708;SDS011;54933;51.908;7.730;2023-12-28T11:32:02;2.17;;;1.00;;
13708;SDS011;54933;51.908;7.730;2023-12-28T11:34:27;3.57;;;1.00;;
13708;SDS011;54933;51.908;7.730;2023-12-28T11:36:54;3.13;;;0.93;;
13708;SDS011;54933;51.908;7.730;2023-12-28T11:39:26;0.97;;;0.80;;
13708;SDS011;54933;51.908;7.730;2023-12-28T11:42:00;2.67;;;0.70;;
13708;SDS011;54933;51.908;7.730;2023-12-28T11:44:31;1.20;;;0.83;;
13708;SDS011;54933;51.908;7.730;2023-12-28T11:49:38;2.13;;;0.80;;
13708;SDS011;54933;51.908;7.730;2023-12-28T11:52:05;0.90;;;0.67;;
13708;SDS011;54933;51.908;7.730;2023-12-28T11:54:31;1.27;;;0.70;;
13708;SDS011;54933;51.908;7.730;2023-12-28T11:56:57;3.43;;;1.50;;
13708;SDS011;54933;51.908;7.730;2023-12-28T11:59:22;1.97;;;0.70;;
13708;SDS011;54933;51.908;7.730;2023-12-28T12:01:53;2.30;;;0.80;;
13708;SDS011;54933;51.908;7.730;2023-12-28T12:04:19;1.70;;;0.70;;
13708;SDS011;54933;51.908;7.730;2023-12-28T12:06:46;1.37;;;0.70;;
13708;SDS011;54933;51.908;7.730;2023-12-28T12:09:12;0.80;;;0.73;;
13708;SDS011;54933;51.908;7.730;2023-12-28T12:11:37;0.77;;;0.77;;
13708;SDS011;54933;51.908;7.730;2023-12-28T12:14:03;3.80;;;1.90;;
13708;SDS011;54933;51.908;7.730;2023-12-28T12:16:34;1.50;;;1.00;;
13708;SDS011;54933;51.908;7.730;2023-12-28T12:19:00;1.90;;;0.63;;
13708;SDS011;54933;51.908;7.730;2023-12-28T12:21:25;3.73;;;1.00;;
13708;SDS011;54933;51.908;7.730;2023-12-28T12:23:50;0.97;;;0.67;;
13708;SDS011;54933;51.908;7.730;2023-12-28T12:26:17;2.90;;;0.70;;
13708;SDS011;54933;51.908;7.730;2023-12-28T12:28:43;1.10;;;1.00;;
13708;SDS011;54933;51.908;7.730;2023-12-28T12:31:09;2.83;;;0.90;;
13708;SDS011;54933;51.908;7.730;2023-12-28T12:33:35;1.53;;;0.77;;
13708;SDS011;54933;51.908;7.730;2023-12-28T12:36:01;1.77;;;0.70;;
13708;SDS011;54933;51.908;7.730;2023-12-28T12:38:27;1.00;;;0.77;;
13708;SDS011;54933;51.908;7.730;2023-12-28T12:40:52;0.63;;;0.57;;
13708;SDS011;54933;51.908;7.730;2023-12-28T12:43:18;0.63;;;0.63;;
13708;SDS011;54933;51.908;7.730;2023-12-28T12:45:44;1.30;;;0.50;;
13708;SDS011;54933;51.908;7.730;2023-12-28T12:48:11;2.13;;;0.80;;
13708;SDS011;54933;51.908;7.730;2023-12-28T12:50:36;1.70;;;0.80;;
13708;SDS011;54933;51.908;7.730;2023-12-28T12:53:01;1.13;;;1.03;;
13708;SDS011;54933;51.908;7.730;2023-12-28T12:55:29;1.47;;;0.63;;
13708;SDS011;54933;51.908;7.730;2023-12-28T12:57:55;0.63;;;0.63;;
13708;SDS011;54933;51.908;7.730;2023-12-28T13:00:21;2.60;;;0.80;;
13708;SDS011;54933;51.908;7.730;2023-12-28T13:02:46;1.47;;;0.80;;
13708;SDS011;54933;51.908;7.730;2023-12-28T13:05:11;0.93;;;0.60;;
13708;SDS011;54933;51.908;7.730;2023-12-28T13:07:37;1.13;;;0.80;;
13708;SDS011;54933;51.908;7.730;2023-12-28T13:10:02;1.43;;;0.60;;
13708;SDS011;54933;51.908;7.730;2023-12-28T13:12:28;0.87;;;0.80;;
13708;SDS011;54933;51.908;7.730;2023-12-28T13:14:53;0.50;;;0.50;;
13708;SDS011;54933;51.908;7.730;2023-12-28T13:17:19;0.80;;;0.70;;
13708;SDS011;54933;51.908;7.730;2023-12-28T13:19:44;1.20;;;0.57;;
13708;SDS011;54933;51.908;7.730;2023-12-28T13:22:09;1.37;;;0.70;;
13708;SDS011;54933;51.908;7.730;2023-12-28T13:24:34;3.43;;;1.00;;
13708;SDS011;54933;51.908;7.730;2023-12-28T13:27:00;2.43;;;0.90;;
13708;SDS011;54933;51.908;7.730;2023-12-28T13:29:25;0.77;;;0.77;;
13708;SDS011;54933;51.908;7.730;2023-12-28T13:31:51;1.40;;;0.70;;
13708;SDS011;54933;51.908;7.730;2023-12-28T13:34:17;1.20;;;0.60;;
13708;SDS011;54933;51.908;7.730;2023-12-28T13:36:44;1.20;;;0.87;;
13708;SDS011;54933;51.908;7.730;2023-12-28T13:39:10;1.37;;;0.67;;
13708;SDS011;54933;51.908;7.730;2023-12-28T13:41:39;0.67;;;0.57;;
13708;SDS011;54933;51.908;7.730;2023-12-28T13:44:07;2.67;;;0.90;;
13708;SDS011;54933;51.908;7.730;2023-12-28T13:46:37;1.27;;;0.57;;
13708;SDS011;54933;51.908;7.730;2023-12-28T13:49:03;0.77;;;0.60;;
13708;SDS011;54933;51.908;7.730;2023-12-28T13:51:29;1.03;;;1.03;;
13708;SDS011;54933;51.908;7.730;2023-12-28T13:53:55;0.97;;;0.53;;
13708;SDS011;54933;51.908;7.730;2023-12-28T13:56:20;2.03;;;0.73;;
13708;SDS011;54933;51.908;7.730;2023-12-28T13:58:45;0.80;;;0.80;;
13708;SDS011;54933;51.908;7.730;2023-12-28T14:01:11;1.43;;;0.80;;
13708;SDS011;54933;51.908;7.730;2023-12-28T14:03:36;1.13;;;0.87;;
13708;SDS011;54933;51.908;7.730;2023-12-28T14:06:02;3.27;;;1.00;;
13708;SDS011;54933;51.908;7.730;2023-12-28T14:08:27;1.70;;;0.77;;
13708;SDS011;54933;51.908;7.730;2023-12-28T14:10:52;1.37;;;0.97;;
13708;SDS011;54933;51.908;7.730;2023-12-28T14:13:18;1.77;;;0.90;;
13708;SDS011;54933;51.908;7.730;2023-12-28T14:15:44;0.73;;;0.73;;
13708;SDS011;54933;51.908;7.730;2023-12-28T14:18:09;1.23;;;0.87;;
13708;SDS011;54933;51.908;7.730;2023-12-28T14:20:35;1.27;;;0.60;;
13708;SDS011;54933;51.908;7.730;2023-12-28T14:23:00;3.33;;;1.07;;
13708;SDS011;54933;51.908;7.730;2023-12-28T14:25:26;1.83;;;0.90;;
13708;SDS011;54933;51.908;7.730;2023-12-28T14:27:52;1.77;;;1.00;;
13708;SDS011;54933;51.908;7.730;2023-12-28T14:30:18;0.73;;;0.60;;
13708;SDS011;54933;51.908;7.730;2023-12-28T14:32:43;2.73;;;1.00;;
13708;SDS011;54933;51.908;7.730;2023-12-28T14:35:09;3.57;;;1.37;;
13708;SDS011;54933;51.908;7.730;2023-12-28T14:37:35;3.73;;;1.10;;
13708;SDS011;54933;51.908;7.730;2023-12-28T14:40:00;1.13;;;0.83;;
13708;SDS011;54933;51.908;7.730;2023-12-28T14:42:32;2.63;;;0.83;;